sensor_id;sensor_type;location;lat;lon;timestamp;P1;durP1;ratioP1;P2;durP2;ratioP2
56481;SDS011;42384;45.186;19.958;2023-02-28T00:00:47;21.23;;;12.60;;
56481;SDS011;42384;45.186;19.958;2023-02-28T00:03:14;20.13;;;12.27;;
56481;SDS011;42384;45.186;19.958;2023-02-28T00:05:40;19.08;;;12.77;;
56481;SDS011;42384;45.186;19.958;2023-02-28T00:08:07;18.42;;;12.75;;
56481;SDS011;42384;45.186;19.958;2023-02-28T00:10:33;22.58;;;13.80;;
56481;SDS011;42384;45.186;19.958;2023-02-28T00:13:01;19.27;;;12.40;;
56481;SDS011;42384;45.186;19.958;2023-02-28T00:15:27;15.98;;;11.05;;
56481;SDS011;42384;45.186;19.958;2023-02-28T00:17:54;20.77;;;12.50;;
56481;SDS011;42384;45.186;19.958;2023-02-28T00:20:20;19.25;;;12.35;;
56481;SDS011;42384;45.186;19.958;2023-02-28T00:22:48;19.58;;;12.80;;
56481;SDS011;42384;45.186;19.958;2023-02-28T00:25:15;18.13;;;12.40;;
56481;SDS011;42384;45.186;19.958;2023-02-28T00:27:42;19.42;;;12.73;;
56481;SDS011;42384;45.186;19.958;2023-02-28T00:30:10;20.45;;;13.30;;
56481;SDS011;42384;45.186;19.958;2023-02-28T00:32:36;20.45;;;13.20;;
56481;SDS011;42384;45.186;19.958;2023-02-28T00:35:02;21.93;;;14.00;;
56481;SDS011;42384;45.186;19.958;2023-02-28T00:37:29;25.45;;;14.88;;
56481;SDS011;42384;45.186;19.958;2023-02-28T00:39:55;23.67;;;14.75;;
56481;SDS011;42384;45.186;19.958;2023-02-28T00:42:22;23.88;;;14.80;;
56481;SDS011;42384;45.186;19.958;2023-02-28T00:44:48;22.08;;;13.68;;
56481;SDS011;42384;45.186;19.958;2023-02-28T00:47:14;22.67;;;14.02;;
56481;SDS011;42384;45.186;19.958;2023-02-28T00:49:41;21.37;;;13.67;;
56481;SDS011;42384;45.186;19.958;2023-02-28T00:52:07;24.35;;;14.20;;
56481;SDS011;42384;45.186;19.958;2023-02-28T00:54:33;22.67;;;14.82;;
56481;SDS011;42384;45.186;19.958;2023-02-28T00:56:59;22.48;;;13.77;;
56481;SDS011;42384;45.186;19.958;2023-02-28T00:59:26;20.30;;;13.60;;
56481;SDS011;42384;45.186;19.958;2023-02-28T01:01:52;22.83;;;14.23;;
56481;SDS011;42384;45.186;19.958;2023-02-28T01:04:19;25.10;;;13.80;;
56481;SDS011;42384;45.186;19.958;2023-02-28T01:06:45;21.20;;;13.53;;
56481;SDS011;42384;45.186;19.958;2023-02-28T01:09:11;22.83;;;13.93;;
56481;SDS011;42384;45.186;19.958;2023-02-28T01:11:38;21.27;;;14.05;;
56481;SDS011;42384;45.186;19.958;2023-02-28T01:14:05;23.70;;;15.35;;
56481;SDS011;42384;45.186;19.958;2023-02-28T01:16:32;22.77;;;15.18;;
56481;SDS011;42384;45.186;19.958;2023-02-28T01:18:58;22.40;;;14.23;;
56481;SDS011;42384;45.186;19.958;2023-02-28T01:21:24;23.83;;;14.80;;
56481;SDS011;42384;45.186;19.958;2023-02-28T01:23:50;24.83;;;16.00;;
56481;SDS011;42384;45.186;19.958;2023-02-28T01:26:17;21.92;;;14.90;;
56481;SDS011;42384;45.186;19.958;2023-02-28T01:28:44;24.73;;;15.15;;
56481;SDS011;42384;45.186;19.958;2023-02-28T01:31:10;28.92;;;15.48;;
56481;SDS011;42384;45.186;19.958;2023-02-28T01:33:36;23.52;;;15.30;;
56481;SDS011;42384;45.186;19.958;2023-02-28T01:36:04;24.73;;;15.85;;
56481;SDS011;42384;45.186;19.958;2023-02-28T01:38:31;24.55;;;16.45;;
56481;SDS011;42384;45.186;19.958;2023-02-28T01:40:57;28.50;;;18.50;;
56481;SDS011;42384;45.186;19.958;2023-02-28T01:43:25;27.10;;;17.52;;
56481;SDS011;42384;45.186;19.958;2023-02-28T01:45:52;28.27;;;17.30;;
56481;SDS011;42384;45.186;19.958;2023-02-28T01:48:19;28.27;;;18.13;;
56481;SDS011;42384;45.186;19.958;2023-02-28T01:50:46;28.02;;;18.10;;
56481;SDS011;42384;45.186;19.958;2023-02-28T01:55:40;27.38;;;17.00;;
56481;SDS011;42384;45.186;19.958;2023-02-28T01:58:07;28.42;;;17.65;;
56481;SDS011;42384;45.186;19.958;2023-02-28T02:00:34;28.02;;;18.08;;
56481;SDS011;42384;45.186;19.958;2023-02-28T02:03:02;29.40;;;16.93;;
56481;SDS011;42384;45.186;19.958;2023-02-28T02:05:30;34.80;;;19.23;;
56481;SDS011;42384;45.186;19.958;2023-02-28T02:08:00;33.83;;;19.33;;
56481;SDS011;42384;45.186;19.958;2023-02-28T02:10:39;28.50;;;18.98;;
56481;SDS011;42384;45.186;19.958;2023-02-28T02:18:30;28.05;;;17.45;;
56481;SDS011;42384;45.186;19.958;2023-02-28T02:21:15;27.35;;;18.52;;
56481;SDS011;42384;45.186;19.958;2023-02-28T02:23:49;27.55;;;18.02;;
56481;SDS011;42384;45.186;19.958;2023-02-28T02:26:25;31.25;;;19.02;;
56481;SDS011;42384;45.186;19.958;2023-02-28T02:36:38;27.25;;;17.95;;
56481;SDS011;42384;45.186;19.958;2023-02-28T02:39:13;30.83;;;19.35;;
56481;SDS011;42384;45.186;19.958;2023-02-28T02:42:00;30.58;;;18.45;;
56481;SDS011;42384;45.186;19.958;2023-02-28T02:44:31;28.77;;;17.85;;
56481;SDS011;42384;45.186;19.958;2023-02-28T02:47:05;30.35;;;19.90;;
56481;SDS011;42384;45.186;19.958;2023-02-28T02:49:32;31.65;;;20.75;;
56481;SDS011;42384;45.186;19.958;2023-02-28T02:52:02;33.50;;;20.17;;
56481;SDS011;42384;45.186;19.958;2023-02-28T02:54:30;33.05;;;20.88;;
56481;SDS011;42384;45.186;19.958;2023-02-28T02:56:58;32.10;;;20.08;;
56481;SDS011;42384;45.186;19.958;2023-02-28T02:59:25;32.00;;;20.50;;
56481;SDS011;42384;45.186;19.958;2023-02-28T03:01:57;31.35;;;20.48;;
56481;SDS011;42384;45.186;19.958;2023-02-28T03:04:24;32.00;;;20.33;;
56481;SDS011;42384;45.186;19.958;2023-02-28T03:06:51;32.88;;;21.08;;
56481;SDS011;42384;45.186;19.958;2023-02-28T03:09:21;34.30;;;20.67;;
56481;SDS011;42384;45.186;19.958;2023-02-28T03:11:47;34.28;;;20.50;;
56481;SDS011;42384;45.186;19.958;2023-02-28T03:28:04;31.73;;;20.27;;
56481;SDS011;42384;45.186;19.958;2023-02-28T03:30:51;38.92;;;20.77;;
56481;SDS011;42384;45.186;19.958;2023-02-28T03:33:23;31.85;;;19.38;;
56481;SDS011;42384;45.186;19.958;2023-02-28T03:35:52;35.53;;;20.92;;
56481;SDS011;42384;45.186;19.958;2023-02-28T03:38:53;32.30;;;20.00;;
56481;SDS011;42384;45.186;19.958;2023-02-28T03:41:30;32.72;;;19.73;;
56481;SDS011;42384;45.186;19.958;2023-02-28T03:43:58;33.13;;;19.45;;
56481;SDS011;42384;45.186;19.958;2023-02-28T03:46:27;33.92;;;20.13;;
56481;SDS011;42384;45.186;19.958;2023-02-28T03:48:55;36.17;;;20.52;;
56481;SDS011;42384;45.186;19.958;2023-02-28T03:51:24;36.70;;;21.58;;
56481;SDS011;42384;45.186;19.958;2023-02-28T03:53:56;37.05;;;20.08;;
56481;SDS011;42384;45.186;19.958;2023-02-28T03:56:33;36.83;;;20.75;;
56481;SDS011;42384;45.186;19.958;2023-02-28T03:59:07;36.92;;;20.85;;
56481;SDS011;42384;45.186;19.958;2023-02-28T04:01:37;33.92;;;20.13;;
56481;SDS011;42384;45.186;19.958;2023-02-28T04:04:04;37.13;;;21.10;;
56481;SDS011;42384;45.186;19.958;2023-02-28T04:06:31;38.97;;;21.03;;
56481;SDS011;42384;45.186;19.958;2023-02-28T04:08:59;37.20;;;22.08;;
56481;SDS011;42384;45.186;19.958;2023-02-28T04:11:33;36.70;;;20.85;;
56481;SDS011;42384;45.186;19.958;2023-02-28T04:14:03;38.15;;;21.13;;
56481;SDS011;42384;45.186;19.958;2023-02-28T04:16:30;36.83;;;22.95;;
56481;SDS011;42384;45.186;19.958;2023-02-28T04:18:56;39.75;;;22.70;;
56481;SDS011;42384;45.186;19.958;2023-02-28T04:21:30;38.90;;;22.60;;
56481;SDS011;42384;45.186;19.958;2023-02-28T04:23:56;33.00;;;20.67;;
56481;SDS011;42384;45.186;19.958;2023-02-28T04:26:28;37.90;;;21.08;;
56481;SDS011;42384;45.186;19.958;2023-02-28T04:28:55;34.20;;;21.30;;
56481;SDS011;42384;45.186;19.958;2023-02-28T04:31:21;36.97;;;21.58;;
56481;SDS011;42384;45.186;19.958;2023-02-28T04:33:47;35.72;;;21.63;;
56481;SDS011;42384;45.186;19.958;2023-02-28T04:36:14;33.15;;;21.30;;
56481;SDS011;42384;45.186;19.958;2023-02-28T04:38:42;34.47;;;20.73;;
56481;SDS011;42384;45.186;19.958;2023-02-28T04:41:09;30.88;;;19.48;;
56481;SDS011;42384;45.186;19.958;2023-02-28T04:43:36;35.15;;;19.65;;
56481;SDS011;42384;45.186;19.958;2023-02-28T04:46:03;37.35;;;20.80;;
56481;SDS011;42384;45.186;19.958;2023-02-28T04:48:30;35.85;;;20.02;;
56481;SDS011;42384;45.186;19.958;2023-02-28T04:51:15;34.53;;;20.17;;
56481;SDS011;42384;45.186;19.958;2023-02-28T04:53:42;32.25;;;19.58;;
56481;SDS011;42384;45.186;19.958;2023-02-28T04:56:10;34.83;;;20.77;;
56481;SDS011;42384;45.186;19.958;2023-02-28T04:58:37;32.83;;;20.08;;
56481;SDS011;42384;45.186;19.958;2023-02-28T05:01:05;33.80;;;19.38;;
56481;SDS011;42384;45.186;19.958;2023-02-28T05:03:40;31.52;;;18.42;;
56481;SDS011;42384;45.186;19.958;2023-02-28T05:06:07;35.10;;;19.55;;
56481;SDS011;42384;45.186;19.958;2023-02-28T05:08:34;29.92;;;18.08;;
56481;SDS011;42384;45.186;19.958;2023-02-28T05:11:00;33.75;;;19.25;;
56481;SDS011;42384;45.186;19.958;2023-02-28T05:13:27;32.75;;;18.73;;
56481;SDS011;42384;45.186;19.958;2023-02-28T05:15:54;29.83;;;18.50;;
56481;SDS011;42384;45.186;19.958;2023-02-28T05:18:20;28.83;;;18.55;;
56481;SDS011;42384;45.186;19.958;2023-02-28T05:20:46;30.40;;;17.83;;
56481;SDS011;42384;45.186;19.958;2023-02-28T05:23:13;30.27;;;17.90;;
56481;SDS011;42384;45.186;19.958;2023-02-28T05:25:40;31.58;;;18.55;;
56481;SDS011;42384;45.186;19.958;2023-02-28T05:28:07;34.40;;;18.10;;
56481;SDS011;42384;45.186;19.958;2023-02-28T05:30:33;29.83;;;18.02;;
56481;SDS011;42384;45.186;19.958;2023-02-28T05:33:00;33.80;;;19.20;;
56481;SDS011;42384;45.186;19.958;2023-02-28T05:35:26;34.83;;;18.42;;
56481;SDS011;42384;45.186;19.958;2023-02-28T05:37:52;38.08;;;19.02;;
56481;SDS011;42384;45.186;19.958;2023-02-28T05:40:19;28.23;;;17.92;;
56481;SDS011;42384;45.186;19.958;2023-02-28T05:42:45;30.87;;;17.87;;
56481;SDS011;42384;45.186;19.958;2023-02-28T05:45:12;33.08;;;19.80;;
56481;SDS011;42384;45.186;19.958;2023-02-28T05:47:38;35.37;;;18.90;;
56481;SDS011;42384;45.186;19.958;2023-02-28T05:50:05;31.47;;;17.57;;
56481;SDS011;42384;45.186;19.958;2023-02-28T05:52:31;36.10;;;18.58;;
56481;SDS011;42384;45.186;19.958;2023-02-28T05:54:58;28.90;;;17.80;;
56481;SDS011;42384;45.186;19.958;2023-02-28T05:57:24;28.10;;;16.27;;
56481;SDS011;42384;45.186;19.958;2023-02-28T05:59:50;33.90;;;18.02;;
56481;SDS011;42384;45.186;19.958;2023-02-28T06:02:16;33.65;;;18.55;;
56481;SDS011;42384;45.186;19.958;2023-02-28T06:04:43;28.67;;;17.40;;
56481;SDS011;42384;45.186;19.958;2023-02-28T06:07:09;32.88;;;17.90;;
56481;SDS011;42384;45.186;19.958;2023-02-28T06:09:36;31.53;;;17.40;;
56481;SDS011;42384;45.186;19.958;2023-02-28T06:12:02;27.85;;;17.35;;
56481;SDS011;42384;45.186;19.958;2023-02-28T06:14:31;28.77;;;17.60;;
56481;SDS011;42384;45.186;19.958;2023-02-28T06:16:58;31.70;;;17.52;;
56481;SDS011;42384;45.186;19.958;2023-02-28T06:21:51;26.45;;;15.50;;
56481;SDS011;42384;45.186;19.958;2023-02-28T06:24:18;27.90;;;17.25;;
56481;SDS011;42384;45.186;19.958;2023-02-28T06:26:44;31.20;;;18.23;;
56481;SDS011;42384;45.186;19.958;2023-02-28T06:29:11;28.85;;;16.77;;
56481;SDS011;42384;45.186;19.958;2023-02-28T06:31:37;28.27;;;18.25;;
56481;SDS011;42384;45.186;19.958;2023-02-28T06:34:04;30.07;;;16.70;;
56481;SDS011;42384;45.186;19.958;2023-02-28T06:36:30;27.85;;;17.02;;
56481;SDS011;42384;45.186;19.958;2023-02-28T06:38:56;27.67;;;17.02;;
56481;SDS011;42384;45.186;19.958;2023-02-28T06:41:23;23.48;;;15.10;;
56481;SDS011;42384;45.186;19.958;2023-02-28T06:43:50;31.38;;;17.25;;
56481;SDS011;42384;45.186;19.958;2023-02-28T06:46:16;28.13;;;15.20;;
56481;SDS011;42384;45.186;19.958;2023-02-28T06:48:43;25.27;;;15.45;;
56481;SDS011;42384;45.186;19.958;2023-02-28T06:51:11;26.17;;;15.85;;
56481;SDS011;42384;45.186;19.958;2023-02-28T06:53:38;24.58;;;15.23;;
56481;SDS011;42384;45.186;19.958;2023-02-28T06:56:05;28.30;;;16.10;;
56481;SDS011;42384;45.186;19.958;2023-02-28T07:00:58;26.60;;;15.65;;
56481;SDS011;42384;45.186;19.958;2023-02-28T07:03:24;27.73;;;15.98;;
56481;SDS011;42384;45.186;19.958;2023-02-28T07:05:50;26.08;;;15.32;;
56481;SDS011;42384;45.186;19.958;2023-02-28T07:08:17;26.65;;;16.30;;
56481;SDS011;42384;45.186;19.958;2023-02-28T07:10:43;24.50;;;15.50;;
56481;SDS011;42384;45.186;19.958;2023-02-28T07:13:10;24.55;;;14.30;;
56481;SDS011;42384;45.186;19.958;2023-02-28T07:15:36;26.75;;;16.23;;
56481;SDS011;42384;45.186;19.958;2023-02-28T07:18:03;27.48;;;16.10;;
56481;SDS011;42384;45.186;19.958;2023-02-28T07:20:29;22.65;;;14.48;;
56481;SDS011;42384;45.186;19.958;2023-02-28T07:22:55;21.00;;;14.18;;
56481;SDS011;42384;45.186;19.958;2023-02-28T07:25:22;27.00;;;15.57;;
56481;SDS011;42384;45.186;19.958;2023-02-28T07:27:49;26.55;;;15.77;;
56481;SDS011;42384;45.186;19.958;2023-02-28T07:30:15;23.83;;;15.17;;
56481;SDS011;42384;45.186;19.958;2023-02-28T07:32:41;23.83;;;14.43;;
56481;SDS011;42384;45.186;19.958;2023-02-28T07:35:08;24.05;;;14.65;;
56481;SDS011;42384;45.186;19.958;2023-02-28T07:37:34;23.70;;;14.37;;
56481;SDS011;42384;45.186;19.958;2023-02-28T07:40:03;29.15;;;15.75;;
56481;SDS011;42384;45.186;19.958;2023-02-28T07:42:31;26.88;;;16.25;;
56481;SDS011;42384;45.186;19.958;2023-02-28T07:44:57;24.47;;;15.07;;
56481;SDS011;42384;45.186;19.958;2023-02-28T07:47:24;25.38;;;15.80;;
56481;SDS011;42384;45.186;19.958;2023-02-28T07:49:50;26.05;;;14.15;;
56481;SDS011;42384;45.186;19.958;2023-02-28T07:52:16;21.98;;;14.65;;
56481;SDS011;42384;45.186;19.958;2023-02-28T07:54:42;24.50;;;14.50;;
56481;SDS011;42384;45.186;19.958;2023-02-28T07:57:08;22.15;;;14.30;;
56481;SDS011;42384;45.186;19.958;2023-02-28T07:59:35;26.90;;;15.18;;
56481;SDS011;42384;45.186;19.958;2023-02-28T08:02:01;23.95;;;15.75;;
56481;SDS011;42384;45.186;19.958;2023-02-28T08:04:27;26.23;;;15.33;;
56481;SDS011;42384;45.186;19.958;2023-02-28T08:06:57;20.60;;;13.90;;
56481;SDS011;42384;45.186;19.958;2023-02-28T08:09:23;25.52;;;15.55;;
56481;SDS011;42384;45.186;19.958;2023-02-28T08:11:49;26.15;;;15.52;;
56481;SDS011;42384;45.186;19.958;2023-02-28T08:14:16;25.25;;;15.95;;
56481;SDS011;42384;45.186;19.958;2023-02-28T08:16:42;28.17;;;15.85;;
56481;SDS011;42384;45.186;19.958;2023-02-28T08:19:09;25.38;;;14.73;;
56481;SDS011;42384;45.186;19.958;2023-02-28T08:21:35;25.03;;;14.83;;
56481;SDS011;42384;45.186;19.958;2023-02-28T08:24:01;21.98;;;14.50;;
56481;SDS011;42384;45.186;19.958;2023-02-28T08:26:27;24.50;;;16.13;;
56481;SDS011;42384;45.186;19.958;2023-02-28T08:28:54;25.40;;;15.75;;
56481;SDS011;42384;45.186;19.958;2023-02-28T08:31:20;25.13;;;15.52;;
56481;SDS011;42384;45.186;19.958;2023-02-28T08:36:16;22.02;;;14.38;;
56481;SDS011;42384;45.186;19.958;2023-02-28T08:38:42;24.83;;;15.38;;
56481;SDS011;42384;45.186;19.958;2023-02-28T08:41:10;22.20;;;14.60;;
56481;SDS011;42384;45.186;19.958;2023-02-28T08:43:37;27.70;;;15.68;;
56481;SDS011;42384;45.186;19.958;2023-02-28T08:46:04;23.90;;;14.77;;
56481;SDS011;42384;45.186;19.958;2023-02-28T08:48:32;24.00;;;15.52;;
56481;SDS011;42384;45.186;19.958;2023-02-28T08:51:00;25.52;;;15.48;;
56481;SDS011;42384;45.186;19.958;2023-02-28T08:53:27;23.90;;;15.45;;
56481;SDS011;42384;45.186;19.958;2023-02-28T08:56:00;24.55;;;15.70;;
56481;SDS011;42384;45.186;19.958;2023-02-28T08:58:26;26.33;;;15.90;;
56481;SDS011;42384;45.186;19.958;2023-02-28T09:00:53;22.80;;;15.55;;
56481;SDS011;42384;45.186;19.958;2023-02-28T09:03:19;22.53;;;14.83;;
56481;SDS011;42384;45.186;19.958;2023-02-28T09:05:52;23.42;;;15.45;;
56481;SDS011;42384;45.186;19.958;2023-02-28T09:08:18;26.25;;;17.00;;
56481;SDS011;42384;45.186;19.958;2023-02-28T09:10:45;25.35;;;14.68;;
56481;SDS011;42384;45.186;19.958;2023-02-28T09:13:11;24.50;;;15.60;;
56481;SDS011;42384;45.186;19.958;2023-02-28T09:15:37;29.65;;;16.60;;
56481;SDS011;42384;45.186;19.958;2023-02-28T09:18:04;26.95;;;15.05;;
56481;SDS011;42384;45.186;19.958;2023-02-28T09:20:30;24.65;;;16.08;;
56481;SDS011;42384;45.186;19.958;2023-02-28T09:22:56;24.00;;;15.55;;
56481;SDS011;42384;45.186;19.958;2023-02-28T09:25:22;26.17;;;16.00;;
56481;SDS011;42384;45.186;19.958;2023-02-28T09:27:48;25.77;;;16.00;;
56481;SDS011;42384;45.186;19.958;2023-02-28T09:30:14;22.15;;;14.88;;
56481;SDS011;42384;45.186;19.958;2023-02-28T09:32:41;25.02;;;14.20;;
56481;SDS011;42384;45.186;19.958;2023-02-28T09:35:07;22.27;;;15.25;;
56481;SDS011;42384;45.186;19.958;2023-02-28T09:37:38;23.73;;;15.18;;
56481;SDS011;42384;45.186;19.958;2023-02-28T09:40:05;24.53;;;15.17;;
56481;SDS011;42384;45.186;19.958;2023-02-28T09:42:32;23.38;;;14.70;;
56481;SDS011;42384;45.186;19.958;2023-02-28T09:45:02;23.40;;;14.65;;
56481;SDS011;42384;45.186;19.958;2023-02-28T09:47:32;21.55;;;14.95;;
56481;SDS011;42384;45.186;19.958;2023-02-28T09:50:46;23.95;;;15.10;;
56481;SDS011;42384;45.186;19.958;2023-02-28T09:52:46;19.75;;;13.25;;
56481;SDS011;42384;45.186;19.958;2023-02-28T09:57:41;23.90;;;15.02;;
56481;SDS011;42384;45.186;19.958;2023-02-28T10:05:22;23.10;;;13.63;;
56481;SDS011;42384;45.186;19.958;2023-02-28T10:10:32;20.88;;;14.27;;
56481;SDS011;42384;45.186;19.958;2023-02-28T10:13:00;19.60;;;13.35;;
56481;SDS011;42384;45.186;19.958;2023-02-28T10:15:29;21.13;;;13.48;;
56481;SDS011;42384;45.186;19.958;2023-02-28T10:17:57;20.77;;;14.02;;
56481;SDS011;42384;45.186;19.958;2023-02-28T10:20:25;19.48;;;13.90;;
56481;SDS011;42384;45.186;19.958;2023-02-28T10:23:10;20.63;;;14.07;;
56481;SDS011;42384;45.186;19.958;2023-02-28T10:25:38;20.95;;;13.77;;
56481;SDS011;42384;45.186;19.958;2023-02-28T10:28:14;21.08;;;14.50;;
56481;SDS011;42384;45.186;19.958;2023-02-28T10:30:51;20.87;;;13.47;;
56481;SDS011;42384;45.186;19.958;2023-02-28T10:33:25;20.95;;;13.32;;
56481;SDS011;42384;45.186;19.958;2023-02-28T10:35:54;22.35;;;14.68;;
56481;SDS011;42384;45.186;19.958;2023-02-28T10:38:27;25.95;;;14.93;;
56481;SDS011;42384;45.186;19.958;2023-02-28T10:41:08;23.20;;;15.25;;
56481;SDS011;42384;45.186;19.958;2023-02-28T10:43:35;20.25;;;13.15;;
56481;SDS011;42384;45.186;19.958;2023-02-28T10:46:02;24.05;;;15.93;;
56481;SDS011;42384;45.186;19.958;2023-02-28T10:48:34;22.08;;;14.75;;
56481;SDS011;42384;45.186;19.958;2023-02-28T10:51:02;19.67;;;13.55;;
56481;SDS011;42384;45.186;19.958;2023-02-28T10:53:33;22.60;;;14.32;;
56481;SDS011;42384;45.186;19.958;2023-02-28T10:56:02;23.95;;;14.25;;
56481;SDS011;42384;45.186;19.958;2023-02-28T10:58:46;21.95;;;13.98;;
56481;SDS011;42384;45.186;19.958;2023-02-28T11:01:18;19.52;;;12.65;;
56481;SDS011;42384;45.186;19.958;2023-02-28T11:03:45;19.70;;;14.02;;
56481;SDS011;42384;45.186;19.958;2023-02-28T11:06:14;25.73;;;16.70;;
56481;SDS011;42384;45.186;19.958;2023-02-28T11:08:44;25.63;;;16.30;;
56481;SDS011;42384;45.186;19.958;2023-02-28T11:11:11;26.33;;;17.80;;
56481;SDS011;42384;45.186;19.958;2023-02-28T11:13:37;27.13;;;17.77;;
56481;SDS011;42384;45.186;19.958;2023-02-28T11:16:04;25.05;;;17.40;;
56481;SDS011;42384;45.186;19.958;2023-02-28T11:21:06;25.48;;;16.08;;
56481;SDS011;42384;45.186;19.958;2023-02-28T11:23:34;24.90;;;16.58;;
56481;SDS011;42384;45.186;19.958;2023-02-28T11:26:02;28.40;;;17.98;;
56481;SDS011;42384;45.186;19.958;2023-02-28T11:31:04;28.25;;;18.10;;
56481;SDS011;42384;45.186;19.958;2023-02-28T11:33:32;33.53;;;21.15;;
56481;SDS011;42384;45.186;19.958;2023-02-28T11:36:00;29.08;;;19.15;;
56481;SDS011;42384;45.186;19.958;2023-02-28T11:38:27;28.05;;;19.48;;
56481;SDS011;42384;45.186;19.958;2023-02-28T11:46:02;32.05;;;21.30;;
56481;SDS011;42384;45.186;19.958;2023-02-28T11:48:34;32.15;;;20.60;;
56481;SDS011;42384;45.186;19.958;2023-02-28T11:56:36;36.22;;;22.73;;
56481;SDS011;42384;45.186;19.958;2023-02-28T12:07:15;31.80;;;21.92;;
56481;SDS011;42384;45.186;19.958;2023-02-28T12:20:34;31.52;;;20.85;;
56481;SDS011;42384;45.186;19.958;2023-02-28T12:28:12;32.70;;;22.25;;
56481;SDS011;42384;45.186;19.958;2023-02-28T12:30:46;29.20;;;20.30;;
56481;SDS011;42384;45.186;19.958;2023-02-28T12:33:16;34.53;;;21.27;;
56481;SDS011;42384;45.186;19.958;2023-02-28T12:38:22;36.67;;;22.23;;
56481;SDS011;42384;45.186;19.958;2023-02-28T12:40:51;37.85;;;23.50;;
56481;SDS011;42384;45.186;19.958;2023-02-28T12:43:19;34.60;;;23.33;;
56481;SDS011;42384;45.186;19.958;2023-02-28T12:45:48;36.75;;;23.48;;
56481;SDS011;42384;45.186;19.958;2023-02-28T12:48:21;34.47;;;23.35;;
56481;SDS011;42384;45.186;19.958;2023-02-28T12:50:50;37.42;;;24.25;;
56481;SDS011;42384;45.186;19.958;2023-02-28T12:53:31;34.50;;;22.05;;
56481;SDS011;42384;45.186;19.958;2023-02-28T12:56:06;33.65;;;22.42;;
56481;SDS011;42384;45.186;19.958;2023-02-28T12:58:36;33.42;;;21.30;;
56481;SDS011;42384;45.186;19.958;2023-02-28T13:06:20;34.85;;;22.33;;
56481;SDS011;42384;45.186;19.958;2023-02-28T13:08:55;39.50;;;25.38;;
56481;SDS011;42384;45.186;19.958;2023-02-28T13:11:29;33.80;;;21.95;;
56481;SDS011;42384;45.186;19.958;2023-02-28T13:13:57;32.03;;;20.85;;
56481;SDS011;42384;45.186;19.958;2023-02-28T13:16:24;31.27;;;21.30;;
56481;SDS011;42384;45.186;19.958;2023-02-28T13:18:51;30.23;;;20.45;;
56481;SDS011;42384;45.186;19.958;2023-02-28T13:31:29;32.40;;;19.58;;
56481;SDS011;42384;45.186;19.958;2023-02-28T13:36:31;26.05;;;16.52;;
56481;SDS011;42384;45.186;19.958;2023-02-28T13:39:01;27.88;;;17.27;;
56481;SDS011;42384;45.186;19.958;2023-02-28T13:44:02;25.50;;;15.20;;
56481;SDS011;42384;45.186;19.958;2023-02-28T13:46:30;24.10;;;15.20;;
56481;SDS011;42384;45.186;19.958;2023-02-28T13:48:56;23.48;;;14.82;;
56481;SDS011;42384;45.186;19.958;2023-02-28T13:51:44;24.30;;;14.85;;
56481;SDS011;42384;45.186;19.958;2023-02-28T13:54:34;21.98;;;13.52;;
56481;SDS011;42384;45.186;19.958;2023-02-28T13:59:56;25.55;;;15.95;;
56481;SDS011;42384;45.186;19.958;2023-02-28T14:05:00;22.75;;;14.57;;
56481;SDS011;42384;45.186;19.958;2023-02-28T14:07:33;23.80;;;14.82;;
56481;SDS011;42384;45.186;19.958;2023-02-28T14:10:05;22.15;;;13.77;;
56481;SDS011;42384;45.186;19.958;2023-02-28T14:15:26;28.27;;;14.73;;
56481;SDS011;42384;45.186;19.958;2023-02-28T14:17:54;23.70;;;14.88;;
56481;SDS011;42384;45.186;19.958;2023-02-28T14:20:21;19.77;;;13.38;;
56481;SDS011;42384;45.186;19.958;2023-02-28T14:22:58;20.20;;;13.35;;
56481;SDS011;42384;45.186;19.958;2023-02-28T14:33:18;22.80;;;13.82;;
56481;SDS011;42384;45.186;19.958;2023-02-28T14:36:00;23.40;;;14.98;;
56481;SDS011;42384;45.186;19.958;2023-02-28T14:38:37;24.50;;;14.45;;
56481;SDS011;42384;45.186;19.958;2023-02-28T14:41:12;25.88;;;14.60;;
56481;SDS011;42384;45.186;19.958;2023-02-28T14:43:47;22.17;;;14.68;;
56481;SDS011;42384;45.186;19.958;2023-02-28T14:46:14;23.40;;;13.38;;
56481;SDS011;42384;45.186;19.958;2023-02-28T14:48:41;24.13;;;12.95;;
56481;SDS011;42384;45.186;19.958;2023-02-28T14:51:10;21.33;;;12.63;;
56481;SDS011;42384;45.186;19.958;2023-02-28T14:53:37;26.02;;;14.27;;
56481;SDS011;42384;45.186;19.958;2023-02-28T14:56:03;25.47;;;15.20;;
56481;SDS011;42384;45.186;19.958;2023-02-28T14:58:30;26.97;;;16.23;;
56481;SDS011;42384;45.186;19.958;2023-02-28T15:00:58;24.05;;;14.70;;
56481;SDS011;42384;45.186;19.958;2023-02-28T15:03:32;23.42;;;15.15;;
56481;SDS011;42384;45.186;19.958;2023-02-28T15:06:03;27.02;;;15.65;;
56481;SDS011;42384;45.186;19.958;2023-02-28T15:08:30;21.10;;;13.93;;
56481;SDS011;42384;45.186;19.958;2023-02-28T15:13:58;20.65;;;13.63;;
56481;SDS011;42384;45.186;19.958;2023-02-28T15:16:28;27.90;;;14.60;;
56481;SDS011;42384;45.186;19.958;2023-02-28T15:18:57;23.20;;;13.75;;
56481;SDS011;42384;45.186;19.958;2023-02-28T15:21:29;26.35;;;16.00;;
56481;SDS011;42384;45.186;19.958;2023-02-28T15:26:23;25.98;;;15.98;;
56481;SDS011;42384;45.186;19.958;2023-02-28T15:28:52;25.35;;;14.73;;
56481;SDS011;42384;45.186;19.958;2023-02-28T15:31:26;24.27;;;15.27;;
56481;SDS011;42384;45.186;19.958;2023-02-28T15:33:56;23.52;;;15.30;;
56481;SDS011;42384;45.186;19.958;2023-02-28T15:36:26;25.77;;;15.57;;
56481;SDS011;42384;45.186;19.958;2023-02-28T15:38:56;26.85;;;16.35;;
56481;SDS011;42384;45.186;19.958;2023-02-28T15:47:00;26.40;;;15.05;;
56481;SDS011;42384;45.186;19.958;2023-02-28T15:49:27;22.05;;;14.10;;
56481;SDS011;42384;45.186;19.958;2023-02-28T15:54:24;25.85;;;14.90;;
56481;SDS011;42384;45.186;19.958;2023-02-28T15:56:53;27.83;;;17.98;;
56481;SDS011;42384;45.186;19.958;2023-02-28T15:59:22;26.10;;;16.23;;
56481;SDS011;42384;45.186;19.958;2023-02-28T16:02:02;26.77;;;17.05;;
56481;SDS011;42384;45.186;19.958;2023-02-28T16:04:29;27.42;;;17.65;;
56481;SDS011;42384;45.186;19.958;2023-02-28T16:07:00;28.05;;;17.75;;
56481;SDS011;42384;45.186;19.958;2023-02-28T16:09:26;25.50;;;16.55;;
56481;SDS011;42384;45.186;19.958;2023-02-28T16:11:55;29.08;;;18.52;;
56481;SDS011;42384;45.186;19.958;2023-02-28T16:16:52;34.45;;;19.48;;
56481;SDS011;42384;45.186;19.958;2023-02-28T16:19:19;28.58;;;17.27;;
56481;SDS011;42384;45.186;19.958;2023-02-28T16:21:46;27.50;;;17.98;;
56481;SDS011;42384;45.186;19.958;2023-02-28T16:24:12;40.78;;;25.00;;
56481;SDS011;42384;45.186;19.958;2023-02-28T16:26:40;44.33;;;25.25;;
56481;SDS011;42384;45.186;19.958;2023-02-28T16:29:06;41.65;;;23.45;;
56481;SDS011;42384;45.186;19.958;2023-02-28T16:31:34;41.45;;;24.50;;
56481;SDS011;42384;45.186;19.958;2023-02-28T16:34:01;40.08;;;24.80;;
56481;SDS011;42384;45.186;19.958;2023-02-28T16:36:28;38.90;;;24.10;;
56481;SDS011;42384;45.186;19.958;2023-02-28T16:38:55;39.53;;;25.15;;